createdAt,value
2022-10-17T00:01:14.678Z,15.86
2022-10-17T00:03:43.375Z,15.89
2022-10-17T00:06:15.995Z,15.89
2022-10-17T00:08:45.967Z,15.88
2022-10-17T00:11:19.492Z,15.88
2022-10-17T00:13:48.668Z,15.87
2022-10-17T00:16:23.945Z,15.86
2022-10-17T00:18:52.276Z,15.84
2022-10-17T00:21:23.307Z,15.82
2022-10-17T00:23:51.935Z,15.80
2022-10-17T00:26:20.818Z,15.79
2022-10-17T00:28:50.422Z,15.75
2022-10-17T00:31:21.917Z,15.74
2022-10-17T00:33:52.006Z,15.70
2022-10-17T00:36:24.286Z,15.68
2022-10-17T00:38:56.552Z,15.66
2022-10-17T00:41:27.692Z,15.63
2022-10-17T00:43:59.875Z,15.59
2022-10-17T00:46:31.374Z,15.56
2022-10-17T00:49:07.782Z,15.52
2022-10-17T00:51:43.313Z,15.49
2022-10-17T00:54:14.757Z,15.45
2022-10-17T00:56:43.700Z,15.41
2022-10-17T00:59:14.761Z,15.37
2022-10-17T01:01:48.030Z,15.36
2022-10-17T01:04:16.819Z,15.34
2022-10-17T01:06:46.421Z,15.33
2022-10-17T01:09:15.109Z,15.32
2022-10-17T01:11:53.347Z,15.31
2022-10-17T01:14:32.306Z,15.30
2022-10-17T01:17:10.855Z,15.30
2022-10-17T01:20:16.547Z,15.30
2022-10-17T01:22:52.985Z,15.30
2022-10-17T01:25:36.136Z,15.30
2022-10-17T01:28:30.600Z,15.26
2022-10-17T01:31:09.021Z,15.25
2022-10-17T01:33:54.637Z,15.22
2022-10-17T01:36:37.647Z,15.22
2022-10-17T01:39:16.934Z,15.19
2022-10-17T01:41:53.759Z,15.14
2022-10-17T01:44:28.496Z,15.13
2022-10-17T01:47:04.308Z,15.12
2022-10-17T01:49:36.272Z,15.13
2022-10-17T01:52:09.875Z,15.13
2022-10-17T01:54:43.617Z,15.14
2022-10-17T01:57:19.193Z,15.13
2022-10-17T01:59:51.181Z,15.11
2022-10-17T02:02:22.297Z,15.12
2022-10-17T02:04:53.338Z,15.13
2022-10-17T02:07:21.681Z,15.11
2022-10-17T02:09:50.283Z,15.11
2022-10-17T02:12:46.551Z,15.06
2022-10-17T02:15:57.883Z,15.03
2022-10-17T02:19:01.772Z,14.99
2022-10-17T02:21:41.372Z,14.96
2022-10-17T02:24:20.594Z,14.92
2022-10-17T02:26:57.664Z,14.91
2022-10-17T02:29:31.489Z,14.88
2022-10-17T02:32:05.753Z,14.86
2022-10-17T02:34:39.650Z,14.84
2022-10-17T02:37:11.712Z,14.84
2022-10-17T02:39:43.677Z,14.85
2022-10-17T02:42:16.028Z,14.83
2022-10-17T02:44:46.471Z,14.84
2022-10-17T02:47:23.289Z,14.87
2022-10-17T02:49:56.179Z,14.89
2022-10-17T02:52:31.250Z,14.93
2022-10-17T02:55:07.612Z,14.97
2022-10-17T02:57:39.913Z,15.03
2022-10-17T03:00:13.178Z,15.10
2022-10-17T03:02:44.851Z,15.14
2022-10-17T03:05:18.520Z,15.17
2022-10-17T03:07:47.238Z,15.18
2022-10-17T03:10:16.119Z,15.17
2022-10-17T03:12:44.663Z,15.14
2022-10-17T03:15:15.016Z,15.11
2022-10-17T03:20:16.712Z,15.00
2022-10-17T03:22:45.295Z,14.97
2022-10-17T03:25:13.521Z,14.92
2022-10-17T03:27:41.892Z,14.88
2022-10-17T03:30:11.527Z,14.84
2022-10-17T03:32:40.288Z,14.80
2022-10-17T03:35:12.617Z,14.76
2022-10-17T03:37:46.734Z,14.71
2022-10-17T03:40:16.615Z,14.67
2022-10-17T03:42:45.643Z,14.63
2022-10-17T03:45:14.272Z,14.58
2022-10-17T03:47:43.788Z,14.55
2022-10-17T03:50:12.371Z,14.50
2022-10-17T03:52:41.353Z,14.47
2022-10-17T03:55:11.752Z,14.42
2022-10-17T03:57:43.372Z,14.38
2022-10-17T04:00:15.074Z,14.34
2022-10-17T04:02:44.882Z,14.30
2022-10-17T04:05:19.383Z,14.27
2022-10-17T04:07:48.988Z,14.20
2022-10-17T04:10:20.509Z,14.18
2022-10-17T04:12:49.413Z,14.12
2022-10-17T04:15:19.521Z,14.10
2022-10-17T04:17:48.627Z,14.07
2022-10-17T04:20:18.187Z,14.06
2022-10-17T04:22:46.834Z,14.05
2022-10-17T04:25:15.431Z,14.04
2022-10-17T04:27:49.002Z,14.02
2022-10-17T04:30:18.022Z,14.01
2022-10-17T04:32:47.302Z,14.00
2022-10-17T04:35:22.001Z,13.99
2022-10-17T04:37:56.552Z,13.97
2022-10-17T04:40:25.030Z,13.95
2022-10-17T04:42:55.581Z,13.93
2022-10-17T04:45:31.672Z,13.91
2022-10-17T04:48:03.972Z,13.89
2022-10-17T04:50:32.201Z,13.89
2022-10-17T04:53:31.508Z,13.87
2022-10-17T04:56:00.252Z,13.85
2022-10-17T04:58:31.480Z,13.83
2022-10-17T05:01:00.092Z,13.83
2022-10-17T05:03:30.996Z,13.82
2022-10-17T05:06:00.160Z,13.80
2022-10-17T05:08:28.704Z,13.79
2022-10-17T05:10:57.072Z,13.77
2022-10-17T05:13:25.376Z,13.74
2022-10-17T05:15:55.100Z,13.72
2022-10-17T05:18:23.680Z,13.70
2022-10-17T05:20:51.957Z,13.67
2022-10-17T05:23:20.555Z,13.64
2022-10-17T05:25:49.219Z,13.62
2022-10-17T05:28:17.711Z,13.61
2022-10-17T05:30:46.243Z,13.59
2022-10-17T05:33:15.888Z,13.58
2022-10-17T05:35:44.181Z,13.57
2022-10-17T05:38:12.748Z,13.56
2022-10-17T05:40:43.932Z,13.55
2022-10-17T05:43:12.655Z,13.57
2022-10-17T05:45:42.501Z,13.56
2022-10-17T05:48:16.913Z,13.56
2022-10-17T05:50:45.745Z,13.56
2022-10-17T05:53:17.487Z,13.56
2022-10-17T05:55:58.356Z,13.55
2022-10-17T06:01:34.828Z,13.59
2022-10-17T06:04:04.790Z,13.61
2022-10-17T06:06:33.605Z,13.62
2022-10-17T06:09:02.689Z,13.65
2022-10-17T06:11:34.821Z,13.67
2022-10-17T06:14:03.324Z,13.69
2022-10-17T06:16:32.145Z,13.72
2022-10-17T06:19:01.307Z,13.72
2022-10-17T06:21:34.311Z,13.76
2022-10-17T06:24:14.631Z,13.77
2022-10-17T06:26:44.405Z,13.84
2022-10-17T06:29:14.905Z,13.94
2022-10-17T06:31:51.900Z,14.02
2022-10-17T06:34:21.150Z,14.15
2022-10-17T06:36:50.815Z,14.27
2022-10-17T06:39:20.597Z,14.43
2022-10-17T06:42:05.560Z,14.57
2022-10-17T06:44:59.994Z,14.72
2022-10-17T06:47:44.444Z,14.86
2022-10-17T06:50:29.237Z,15.00
2022-10-17T06:53:12.083Z,15.14
2022-10-17T06:56:15.885Z,15.34
2022-10-17T06:59:00.947Z,15.57
2022-10-17T07:01:36.717Z,15.79
2022-10-17T07:04:06.559Z,15.95
2022-10-17T07:06:36.005Z,16.12
2022-10-17T07:09:11.717Z,16.21
2022-10-17T07:11:40.180Z,16.33
2022-10-17T07:14:08.649Z,16.54
2022-10-17T07:16:37.570Z,16.67
2022-10-17T07:19:32.072Z,16.88
2022-10-17T07:22:00.484Z,17.10
2022-10-17T07:24:30.426Z,17.19
2022-10-17T07:27:06.392Z,17.16
2022-10-17T07:29:35.378Z,17.19
2022-10-17T07:32:10.665Z,17.25
2022-10-17T07:34:39.197Z,17.39
2022-10-17T07:37:09.900Z,17.51
2022-10-17T07:39:41.661Z,17.67
2022-10-17T07:42:11.803Z,17.79
2022-10-17T07:44:40.343Z,17.87
2022-10-17T07:47:08.598Z,17.83
2022-10-17T07:49:42.381Z,17.92
2022-10-17T07:52:12.040Z,18.00
2022-10-17T07:54:41.894Z,18.11
2022-10-17T07:57:10.759Z,18.27
2022-10-17T07:59:39.693Z,18.41
2022-10-17T08:02:10.359Z,18.49
2022-10-17T08:04:39.089Z,18.60
2022-10-17T08:07:21.001Z,18.77
2022-10-17T08:09:53.022Z,18.98
2022-10-17T08:12:21.249Z,19.21
2022-10-17T08:14:49.508Z,19.44
2022-10-17T08:17:18.007Z,19.70
2022-10-17T08:19:46.234Z,20.01
2022-10-17T08:22:14.418Z,20.24
2022-10-17T08:24:44.480Z,20.35
2022-10-17T08:27:14.356Z,20.46
2022-10-17T08:29:42.656Z,20.58
2022-10-17T08:32:10.872Z,20.65
2022-10-17T08:34:39.361Z,20.74
2022-10-17T08:37:07.992Z,20.71
2022-10-17T08:39:36.316Z,20.70
2022-10-17T08:42:33.732Z,20.72
2022-10-17T08:45:14.657Z,20.75
2022-10-17T08:47:47.158Z,20.74
2022-10-17T08:50:24.933Z,20.74
2022-10-17T08:52:56.823Z,20.77
2022-10-17T08:55:34.193Z,20.82
2022-10-17T08:58:03.805Z,20.91
2022-10-17T09:00:33.724Z,20.94
2022-10-17T09:03:20.884Z,20.94
2022-10-17T09:05:55.734Z,20.93
2022-10-17T09:08:32.945Z,20.92
2022-10-17T09:11:08.706Z,21.04
2022-10-17T09:14:01.304Z,21.14
2022-10-17T09:16:51.612Z,21.35
2022-10-17T09:19:26.519Z,21.62
2022-10-17T09:21:59.917Z,21.83
2022-10-17T09:24:41.065Z,22.06
2022-10-17T09:27:23.278Z,22.09
2022-10-17T09:30:40.188Z,22.04
2022-10-17T09:33:23.339Z,22.05
2022-10-17T09:36:03.559Z,22.32
2022-10-17T09:38:40.623Z,22.64
2022-10-17T09:41:44.232Z,22.92
2022-10-17T09:44:21.759Z,23.24
2022-10-17T09:47:17.331Z,23.47
2022-10-17T09:49:47.276Z,23.51
2022-10-17T09:52:18.888Z,23.63
2022-10-17T09:54:49.389Z,23.68
2022-10-17T09:57:20.314Z,23.86
2022-10-17T09:59:58.925Z,24.08
2022-10-17T10:02:32.641Z,24.30
2022-10-17T10:05:06.677Z,24.46
2022-10-17T10:07:39.072Z,24.56
2022-10-17T10:10:27.755Z,24.69
2022-10-17T10:13:21.356Z,24.84
2022-10-17T10:15:52.110Z,24.96
2022-10-17T10:18:36.831Z,25.06
2022-10-17T10:21:13.231Z,25.11
2022-10-17T10:23:43.720Z,25.26
2022-10-17T10:26:24.220Z,25.46
2022-10-17T10:29:03.240Z,25.55
2022-10-17T10:31:36.800Z,25.57
2022-10-17T10:34:19.527Z,25.64
2022-10-17T10:36:57.360Z,25.74
2022-10-17T10:39:47.032Z,25.80
2022-10-17T10:42:27.661Z,25.88
2022-10-17T10:45:02.449Z,26.05
2022-10-17T10:47:32.607Z,26.09
2022-10-17T10:50:28.112Z,26.22
2022-10-17T10:53:23.279Z,26.36
2022-10-17T10:55:56.111Z,26.38
2022-10-17T10:58:43.444Z,26.36
2022-10-17T11:01:21.566Z,26.25
2022-10-17T11:04:06.064Z,26.22
2022-10-17T11:06:40.155Z,26.37
2022-10-17T11:09:24.445Z,26.53
2022-10-17T11:12:01.550Z,26.71
2022-10-17T11:14:41.231Z,26.86
2022-10-17T11:17:18.744Z,26.92
2022-10-17T11:19:53.393Z,26.92
2022-10-17T11:22:29.410Z,26.93
2022-10-17T11:25:03.866Z,26.98
2022-10-17T11:27:32.801Z,26.99
2022-10-17T11:30:01.487Z,27.06
2022-10-17T11:32:36.049Z,27.20
2022-10-17T11:35:15.912Z,27.16
2022-10-17T11:37:51.649Z,27.18
2022-10-17T11:40:29.847Z,27.29
2022-10-17T11:43:02.553Z,27.42
2022-10-17T11:45:44.244Z,27.47
2022-10-17T11:48:21.702Z,27.60
2022-10-17T11:53:58.024Z,27.89
2022-10-17T11:56:41.846Z,28.01
2022-10-17T11:59:48.656Z,28.07
2022-10-17T12:02:28.679Z,28.08
2022-10-17T12:05:05.689Z,28.04
2022-10-17T12:10:35.101Z,28.08
2022-10-17T12:13:51.565Z,28.21
2022-10-17T12:16:46.833Z,28.28
2022-10-17T12:19:36.826Z,28.29
2022-10-17T12:22:19.448Z,28.33
2022-10-17T12:24:57.836Z,28.47
2022-10-17T12:27:46.186Z,28.60
2022-10-17T12:30:24.653Z,28.56
2022-10-17T12:33:21.798Z,28.48
2022-10-17T12:35:52.060Z,28.49
2022-10-17T12:38:28.533Z,28.51
2022-10-17T12:41:14.461Z,28.58
2022-10-17T12:43:54.808Z,28.73
2022-10-17T12:46:59.613Z,28.81
2022-10-17T12:49:51.097Z,28.79
2022-10-17T12:52:41.978Z,28.85
2022-10-17T12:55:15.527Z,28.95
2022-10-17T12:57:52.295Z,28.99
2022-10-17T13:00:34.774Z,29.08
2022-10-17T13:03:13.925Z,29.09
2022-10-17T13:05:49.586Z,29.05
2022-10-17T13:08:22.953Z,29.03
2022-10-17T13:10:54.665Z,29.06
2022-10-17T13:13:28.448Z,29.10
2022-10-17T13:15:58.060Z,29.16
2022-10-17T13:18:28.911Z,29.15
2022-10-17T13:21:00.205Z,29.07
2022-10-17T13:23:33.814Z,29.04
2022-10-17T13:26:14.435Z,29.09
2022-10-17T13:28:43.593Z,29.16
2022-10-17T13:34:06.777Z,28.98
2022-10-17T13:36:36.483Z,28.96
2022-10-17T13:39:12.202Z,28.92
2022-10-17T13:41:43.541Z,28.90
2022-10-17T13:44:19.927Z,28.87
2022-10-17T13:46:48.929Z,28.86
2022-10-17T13:49:26.005Z,28.81
2022-10-17T13:51:57.321Z,28.75
2022-10-17T13:54:37.616Z,28.73
2022-10-17T13:57:07.575Z,28.61
2022-10-17T13:59:40.544Z,28.55
2022-10-17T14:02:16.924Z,28.54
2022-10-17T14:08:09.316Z,28.37
2022-10-17T14:10:37.411Z,28.26
2022-10-17T14:13:08.140Z,28.17
2022-10-17T14:15:37.970Z,27.99
2022-10-17T14:18:09.300Z,27.75
2022-10-17T14:23:36.169Z,27.16
2022-10-17T14:26:15.243Z,26.92
2022-10-17T14:28:47.284Z,26.77
2022-10-17T14:31:31.543Z,26.68
2022-10-17T14:34:01.107Z,26.59
2022-10-17T14:36:39.806Z,26.48
2022-10-17T14:39:19.425Z,26.37
2022-10-17T14:41:48.763Z,26.24
2022-10-17T14:44:30.260Z,26.11
2022-10-17T14:47:18.286Z,25.96
2022-10-17T14:49:52.482Z,25.80
2022-10-17T14:52:33.439Z,25.66
2022-10-17T14:55:23.899Z,25.50
2022-10-17T14:57:52.576Z,25.34
2022-10-17T15:00:23.032Z,25.21
2022-10-17T15:02:53.729Z,25.09
2022-10-17T15:05:23.285Z,24.97
2022-10-17T15:07:53.477Z,24.91
2022-10-17T15:10:33.672Z,24.87
2022-10-17T15:15:52.316Z,24.83
2022-10-17T15:18:20.920Z,24.85
2022-10-17T15:20:55.348Z,24.87
2022-10-17T15:23:34.397Z,24.92
2022-10-17T15:26:02.871Z,24.98
2022-10-17T15:28:31.177Z,25.06
2022-10-17T15:30:59.748Z,25.13
2022-10-17T15:33:28.027Z,25.16
2022-10-17T15:38:29.740Z,25.08
2022-10-17T15:40:59.337Z,25.02
2022-10-17T15:43:27.520Z,24.92
2022-10-17T15:45:55.798Z,24.84
2022-10-17T15:48:33.496Z,24.72
2022-10-17T15:51:02.086Z,24.60
2022-10-17T15:53:30.300Z,24.49
2022-10-17T15:56:00.759Z,24.38
2022-10-17T15:58:35.105Z,24.25
2022-10-17T16:01:03.984Z,24.08
2022-10-17T16:03:32.646Z,23.98
2022-10-17T16:06:01.314Z,23.86
2022-10-17T16:08:29.511Z,23.75
2022-10-17T16:10:59.544Z,23.65
2022-10-17T16:13:27.916Z,23.54
2022-10-17T16:15:56.119Z,23.43
2022-10-17T16:18:24.295Z,23.34
2022-10-17T16:20:52.555Z,23.24
2022-10-17T16:23:20.763Z,23.16
2022-10-17T16:25:48.939Z,23.06
2022-10-17T16:28:18.489Z,22.97
2022-10-17T16:30:46.668Z,22.88
2022-10-17T16:33:14.951Z,22.82
2022-10-17T16:35:43.550Z,22.72
2022-10-17T16:38:12.028Z,22.67
2022-10-17T16:40:40.783Z,22.57
2022-10-17T16:43:11.760Z,22.52
2022-10-17T16:45:42.159Z,22.45
2022-10-17T16:48:12.308Z,22.36
2022-10-17T16:50:41.397Z,22.27
2022-10-17T16:53:09.952Z,22.20
2022-10-17T16:55:38.162Z,22.13
2022-10-17T16:58:06.336Z,22.06
2022-10-17T17:00:34.605Z,21.99
2022-10-17T17:03:04.251Z,21.91
2022-10-17T17:05:32.477Z,21.83
2022-10-17T17:08:00.918Z,21.76
2022-10-17T17:10:29.154Z,21.70
2022-10-17T17:12:57.328Z,21.63
2022-10-17T17:15:25.812Z,21.57
2022-10-17T17:17:55.714Z,21.51
2022-10-17T17:20:25.844Z,21.46
2022-10-17T17:22:54.360Z,21.39
2022-10-17T17:25:23.382Z,21.37
2022-10-17T17:27:51.912Z,21.32
2022-10-17T17:30:20.296Z,21.27
2022-10-17T17:32:48.545Z,21.22
2022-10-17T17:35:16.960Z,21.18
2022-10-17T17:37:46.534Z,21.13
2022-10-17T17:40:15.063Z,21.10
2022-10-17T17:42:43.651Z,21.08
2022-10-17T17:45:12.707Z,21.06
2022-10-17T17:47:40.899Z,21.04
2022-10-17T17:50:09.993Z,21.03
2022-10-17T17:52:40.247Z,21.00
2022-10-17T17:55:10.773Z,20.97
2022-10-17T17:57:39.363Z,20.91
2022-10-17T18:00:09.690Z,20.85
2022-10-17T18:02:42.106Z,20.80
2022-10-17T18:05:12.599Z,20.72
2022-10-17T18:07:41.107Z,20.61
2022-10-17T18:12:44.026Z,20.52
2022-10-17T18:15:13.319Z,20.50
2022-10-17T18:17:42.065Z,20.44
2022-10-17T18:20:11.616Z,20.40
2022-10-17T18:22:40.211Z,20.35
2022-10-17T18:25:10.681Z,20.29
2022-10-17T18:27:39.240Z,20.25
2022-10-17T18:30:09.377Z,20.22
2022-10-17T18:32:37.904Z,20.19
2022-10-17T18:35:06.973Z,20.16
2022-10-17T18:37:35.312Z,20.11
2022-10-17T18:40:03.669Z,20.09
2022-10-17T18:42:33.467Z,20.06
2022-10-17T18:45:03.202Z,20.06
2022-10-17T18:47:31.648Z,20.06
2022-10-17T18:50:00.402Z,20.06
2022-10-17T18:52:29.040Z,20.03
2022-10-17T18:54:57.548Z,19.98
2022-10-17T18:57:26.463Z,19.94
2022-10-17T18:59:56.029Z,19.92
2022-10-17T19:02:24.608Z,19.90
2022-10-17T19:04:53.510Z,19.87
2022-10-17T19:07:21.995Z,19.83
2022-10-17T19:09:50.552Z,19.82
2022-10-17T19:12:19.203Z,19.78
2022-10-17T19:14:49.629Z,19.76
2022-10-17T19:17:19.341Z,19.75
2022-10-17T19:19:50.223Z,19.74
2022-10-17T19:22:18.757Z,19.72
2022-10-17T19:24:47.420Z,19.68
2022-10-17T19:27:15.722Z,19.64
2022-10-17T19:29:44.042Z,19.59
2022-10-17T19:32:16.701Z,19.55
2022-10-17T19:34:48.772Z,19.50
2022-10-17T19:37:16.996Z,19.47
2022-10-17T19:39:45.190Z,19.43
2022-10-17T19:42:13.672Z,19.39
2022-10-17T19:44:41.913Z,19.36
2022-10-17T19:47:10.387Z,19.35
2022-10-17T19:49:38.986Z,19.34
2022-10-17T19:52:08.696Z,19.33
2022-10-17T19:54:38.893Z,19.31
2022-10-17T19:57:09.649Z,19.31
2022-10-17T19:59:39.166Z,19.30
2022-10-17T20:02:07.752Z,19.27
2022-10-17T20:04:39.431Z,19.27
2022-10-17T20:07:12.061Z,19.22
2022-10-17T20:09:40.295Z,19.19
2022-10-17T20:12:08.780Z,19.16
2022-10-17T20:14:40.914Z,19.14
2022-10-17T20:17:09.499Z,19.12
2022-10-17T20:19:37.670Z,19.10
2022-10-17T20:22:05.922Z,19.09
2022-10-17T20:24:35.453Z,19.08
2022-10-17T20:27:04.304Z,19.07
2022-10-17T20:29:32.886Z,19.06
2022-10-17T20:32:01.505Z,19.05
2022-10-17T20:34:34.704Z,19.05
2022-10-17T20:37:03.371Z,19.02
2022-10-17T20:39:31.909Z,19.01
2022-10-17T20:42:02.038Z,18.98
2022-10-17T20:44:30.664Z,18.94
2022-10-17T20:47:02.032Z,18.95
2022-10-17T20:49:32.290Z,18.92
2022-10-17T20:52:01.386Z,18.92
2022-10-17T20:54:30.007Z,18.90
2022-10-17T20:57:01.133Z,18.89
2022-10-17T20:59:34.492Z,18.88
2022-10-17T21:02:03.235Z,18.86
2022-10-17T21:04:47.652Z,18.84
2022-10-17T21:07:16.702Z,18.82
2022-10-17T21:09:46.293Z,18.81
2022-10-17T21:12:25.874Z,18.76
2022-10-17T21:15:06.865Z,18.71
2022-10-17T21:17:35.441Z,18.67
2022-10-17T21:20:04.072Z,18.63
2022-10-17T21:22:33.799Z,18.61
2022-10-17T21:25:02.337Z,18.58
2022-10-17T21:27:30.870Z,18.55
2022-10-17T21:29:59.460Z,18.53
2022-10-17T21:32:40.261Z,18.50
2022-10-17T21:35:16.029Z,18.46
2022-10-17T21:37:44.209Z,18.44
2022-10-17T21:40:13.869Z,18.41
2022-10-17T21:42:42.484Z,18.37
2022-10-17T21:45:15.717Z,18.34
2022-10-17T21:48:11.719Z,18.31
2022-10-17T21:50:38.259Z,18.28
2022-10-17T21:53:06.468Z,18.27
2022-10-17T21:55:37.306Z,18.23
2022-10-17T21:58:06.192Z,18.21
2022-10-17T22:00:34.736Z,18.19
2022-10-17T22:03:05.828Z,18.17
2022-10-17T22:05:34.425Z,18.14
2022-10-17T22:08:02.827Z,18.12
2022-10-17T22:10:31.442Z,18.10
2022-10-17T22:13:00.298Z,18.09
2022-10-17T22:15:28.851Z,18.09
2022-10-17T22:17:57.531Z,18.07
2022-10-17T22:20:27.201Z,18.06
2022-10-17T22:22:55.429Z,18.06
2022-10-17T22:25:23.911Z,18.06
2022-10-17T22:27:52.688Z,18.07
2022-10-17T22:30:21.219Z,18.07
2022-10-17T22:32:49.744Z,18.08
2022-10-17T22:35:18.615Z,18.07
2022-10-17T22:37:48.469Z,18.07
2022-10-17T22:40:17.124Z,18.06
2022-10-17T22:42:45.813Z,18.05
2022-10-17T22:45:14.435Z,18.05
2022-10-17T22:47:42.907Z,18.03
2022-10-17T22:50:11.608Z,18.00
2022-10-17T22:52:39.830Z,17.99
2022-10-17T22:55:10.663Z,17.99
2022-10-17T22:57:40.355Z,17.98
2022-10-17T23:00:11.690Z,17.98
2022-10-17T23:02:40.336Z,17.97
2022-10-17T23:05:09.496Z,17.95
2022-10-17T23:07:38.092Z,17.94
2022-10-17T23:10:07.632Z,17.93
2022-10-17T23:12:37.215Z,17.92
2022-10-17T23:15:06.564Z,17.91
2022-10-17T23:17:35.203Z,17.89
2022-10-17T23:20:03.929Z,17.87
2022-10-17T23:22:32.828Z,17.86
2022-10-17T23:25:01.528Z,17.86
2022-10-17T23:30:06.378Z,17.89
2022-10-17T23:32:34.919Z,17.89
2022-10-17T23:35:03.572Z,17.91
2022-10-17T23:37:32.691Z,17.90
2022-10-17T23:40:01.723Z,17.91
2022-10-17T23:42:30.382Z,17.91
2022-10-17T23:44:58.590Z,17.91
2022-10-17T23:47:28.429Z,17.91
2022-10-17T23:49:56.781Z,17.89
2022-10-17T23:52:25.916Z,17.89
2022-10-17T23:54:54.472Z,17.89
2022-10-17T23:57:23.043Z,17.91
2022-10-17T23:59:51.594Z,17.92
